Date,TemperatureHighF,TemperatureAvgF,TemperatureLowF,DewpointHighF,DewpointAvgF,DewpointLowF,HumidityHigh,HumidityAvg,HumidityLow,PressureMaxIn,PressureMinIn,WindSpeedMaxMPH,WindSpeedAvgMPH,GustSpeedMaxMPH,PrecipitationSumIn
2013-8-11,95,85,75,79,76,73,96,75,53,30.12,30.02,6,2,12,0.39
2013-8-12,94,84,75,80,76,73,96,79,53,30.11,29.98,6,1,13,0.00
2013-8-13,94,84,76,77,73,-100,93,73,53,30.04,29.92,5,1,12,0.00
2013-8-14,91,83,77,79,74,-100,93,77,60,29.98,29.91,7,2,14,0.00
2013-8-15,89,76,76,78,62,-100,90,77,64,30.03,29.94,7,2,14,0.00
2013-8-16,92,82,79,78,72,-100,87,76,58,30.03,29.94,5,1,20,0.00
2013-8-17,92,81,74,79,75,70,97,83,52,30.05,29.96,12,2,26,0.15
2013-8-18,93,80,73,79,73,-100,96,82,55,30.09,29.98,9,2,23,1.04
2013-8-19,93,75,73,79,59,-100,98,83,55,30.05,29.93,6,2,16,1.32
2013-8-20,92,78,73,80,72,-100,98,86,53,30.05,29.98,6,1,12,0.23
2013-8-21,93,81,75,78,75,73,96,84,54,30.07,29.95,6,2,14,0.37
2013-8-22,92,80,74,79,75,72,97,88,57,30.05,29.95,5,1,13,0.40
2013-8-23,93,80,75,79,75,73,98,86,56,30.00,29.93,5,1,14,0.87
2013-8-24,92,81,74,78,75,72,97,83,55,30.09,29.97,10,1,25,0.85
2013-8-25,89,78,73,78,72,-100,98,86,61,30.13,30.04,7,2,16,0.85
2013-8-26,90,80,75,76,74,71,95,82,55,30.12,29.98,7,2,13,0.01
2013-8-27,90,79,73,76,73,71,98,85,63,30.03,29.96,5,1,12,0.02
2013-8-28,91,84,75,75,73,70,94,72,50,30.02,29.96,7,3,23,0.07
2013-8-29,90,81,71,76,73,70,97,79,58,30.02,29.92,7,2,16,0.01
2013-8-30,90,82,77,77,75,73,94,82,65,29.98,29.88,6,1,15,0.00